Terminal Aerodrome Forecast
Issued by NWS Caribou, ME

Home | Current Version | Previous Version | Text Only | Print | Product List | Glossary On
Versions: 1 2 3 4 5 6 7 8 9 10 11 12 13 14 15 16 17 18 19 20
109
FTUS41 KCAR 111124
TAFBGR
TAF
KBGR 111124Z 1112/1212 34006KT P6SM VCSH BKN035
     FM111500 33006KT P6SM VCSH BKN030
     FM112100 33008KT P6SM VCSH BKN025
     FM120000 32010KT P6SM BKN035
     FM120600 30008KT P6SM SCT040=

USA.gov is the U.S. government's official web portal to all federal, state and local government web resources and services.